Howick Airport


Codes: FAHC/
Name: Howick Airport
City: Howick
Country: South Africa
Elevation: 3619 ft.

Photos at Howick Airport


   Photos courtesy of SpottingLog. You can add your own sightings and photos by signing up for a free trial today.



No photos found.

Weather at Howick Airport


Time (UTC)DescriptionTempratureWindCloud coverageVisibilityPressureHumidity
13-Jun-2024 03:00Clear Sky7°C4 mph, W0%10000m1028hPa58%
13-Jun-2024 06:00Clear Sky9°C2 mph, NW0%10000m1029hPa58%
13-Jun-2024 09:00Clear Sky17°C4 mph, E1%10000m1027hPa46%
13-Jun-2024 12:00Clear Sky18°C7 mph, E0%10000m1024hPa41%
13-Jun-2024 15:00Clear Sky12°C4 mph, E0%10000m1027hPa77%
13-Jun-2024 18:00Clear Sky9°C2 mph, NW3%10000m1029hPa97%
13-Jun-2024 21:00Few Clouds8°C2 mph, NW14%10000m1028hPa96%
14-Jun-2024 00:00Clear Sky7°C4 mph, NW8%10000m1028hPa86%
14-Jun-2024 03:00Clear Sky6°C4 mph, NW0%10000m1028hPa78%
14-Jun-2024 06:00Clear Sky9°C4 mph, NW0%10000m1028hPa62%
14-Jun-2024 09:00Clear Sky20°C2 mph, NE0%10000m1025hPa28%
14-Jun-2024 12:00Clear Sky22°C4 mph, E0%10000m1021hPa25%
14-Jun-2024 15:00Clear Sky13°C0 mph, NE0%10000m1023hPa51%
14-Jun-2024 18:00Clear Sky10°C4 mph, NW0%10000m1025hPa57%
14-Jun-2024 21:00Clear Sky10°C4 mph, W0%10000m1025hPa51%
15-Jun-2024 00:00Clear Sky9°C4 mph, W0%10000m1024hPa48%
15-Jun-2024 03:00Clear Sky9°C4 mph, W0%10000m1024hPa46%
15-Jun-2024 06:00Clear Sky12°C4 mph, W0%10000m1025hPa39%
15-Jun-2024 09:00Clear Sky21°C4 mph, SE0%10000m1023hPa20%
15-Jun-2024 12:00Clear Sky22°C7 mph, SE0%10000m1021hPa21%
15-Jun-2024 15:00Clear Sky13°C2 mph, E0%10000m1023hPa51%
15-Jun-2024 18:00Clear Sky10°C4 mph, NW0%10000m1026hPa66%
15-Jun-2024 21:00Clear Sky9°C4 mph, NW0%10000m1026hPa66%
16-Jun-2024 00:00Clear Sky8°C4 mph, NW1%10000m1024hPa62%
16-Jun-2024 03:00Clear Sky8°C4 mph, W2%10000m1024hPa61%
16-Jun-2024 06:00Clear Sky10°C4 mph, W3%10000m1025hPa52%
16-Jun-2024 09:00Broken Clouds19°C2 mph, NE57%10000m1022hPa29%
16-Jun-2024 12:00Broken Clouds20°C7 mph, SE72%10000m1019hPa29%
16-Jun-2024 15:00Broken Clouds12°C2 mph, E73%10000m1021hPa55%
16-Jun-2024 18:00Broken Clouds10°C4 mph, W73%10000m1023hPa63%
16-Jun-2024 21:00Broken Clouds9°C4 mph, NW81%10000m1023hPa62%
17-Jun-2024 00:00Overcast Clouds9°C4 mph, NW85%10000m1022hPa59%
17-Jun-2024 03:00Overcast Clouds9°C4 mph, W99%10000m1022hPa58%
17-Jun-2024 06:00Overcast Clouds10°C4 mph, W92%10000m1022hPa52%
17-Jun-2024 09:00Overcast Clouds20°C4 mph, N90%10000m1019hPa25%
17-Jun-2024 12:00Overcast Clouds22°C4 mph, N94%10000m1015hPa18%
17-Jun-2024 15:00Overcast Clouds15°C2 mph, NW100%10000m1016hPa33%
17-Jun-2024 18:00Overcast Clouds11°C4 mph, NW100%10000m1017hPa36%
17-Jun-2024 21:00Overcast Clouds10°C7 mph, W86%10000m1017hPa38%
18-Jun-2024 00:00Broken Clouds9°C7 mph, W80%10000m1016hPa39%